sensor_id;sensor_type;location;lat;lon;timestamp;temperature;humidity
48007;DHT22;33771;48.180;11.400;2023-03-02T00:00:43;0.30;99.90
48007;DHT22;33771;48.180;11.400;2023-03-02T00:03:10;0.30;99.90
48007;DHT22;33771;48.180;11.400;2023-03-02T00:05:36;0.30;99.90
48007;DHT22;33771;48.180;11.400;2023-03-02T00:08:03;0.30;99.90
48007;DHT22;33771;48.180;11.400;2023-03-02T00:10:30;0.30;99.90
48007;DHT22;33771;48.180;11.400;2023-03-02T00:12:56;0.30;99.90
48007;DHT22;33771;48.180;11.400;2023-03-02T00:15:22;0.30;99.90
48007;DHT22;33771;48.180;11.400;2023-03-02T00:17:48;0.30;99.90
48007;DHT22;33771;48.180;11.400;2023-03-02T00:20:14;0.20;99.90
48007;DHT22;33771;48.180;11.400;2023-03-02T00:22:43;0.20;99.90
48007;DHT22;33771;48.180;11.400;2023-03-02T00:25:11;0.20;99.90
48007;DHT22;33771;48.180;11.400;2023-03-02T00:27:37;0.20;99.90
48007;DHT22;33771;48.180;11.400;2023-03-02T00:30:04;0.20;99.90
48007;DHT22;33771;48.180;11.400;2023-03-02T00:32:30;0.20;99.90
48007;DHT22;33771;48.180;11.400;2023-03-02T00:34:55;0.20;99.90
48007;DHT22;33771;48.180;11.400;2023-03-02T00:37:22;0.20;99.90
48007;DHT22;33771;48.180;11.400;2023-03-02T00:39:50;0.20;99.90
48007;DHT22;33771;48.180;11.400;2023-03-02T00:42:16;0.20;99.90
48007;DHT22;33771;48.180;11.400;2023-03-02T00:44:41;0.20;99.90
48007;DHT22;33771;48.180;11.400;2023-03-02T00:47:07;0.20;99.90
48007;DHT22;33771;48.180;11.400;2023-03-02T00:49:33;0.20;99.90
48007;DHT22;33771;48.180;11.400;2023-03-02T00:51:59;0.10;99.90
48007;DHT22;33771;48.180;11.400;2023-03-02T00:54:25;0.10;99.90
48007;DHT22;33771;48.180;11.400;2023-03-02T00:56:50;0.10;99.90
48007;DHT22;33771;48.180;11.400;2023-03-02T00:59:16;0.10;99.90
48007;DHT22;33771;48.180;11.400;2023-03-02T01:01:58;0.10;99.90
48007;DHT22;33771;48.180;11.400;2023-03-02T01:04:30;0.10;99.90
48007;DHT22;33771;48.180;11.400;2023-03-02T01:07:01;0.10;99.90
48007;DHT22;33771;48.180;11.400;2023-03-02T01:09:28;0.10;99.90
48007;DHT22;33771;48.180;11.400;2023-03-02T01:11:53;0.00;99.90
48007;DHT22;33771;48.180;11.400;2023-03-02T01:14:20;0.00;99.90
48007;DHT22;33771;48.180;11.400;2023-03-02T01:16:46;0.00;99.90
48007;DHT22;33771;48.180;11.400;2023-03-02T01:19:12;0.00;99.90
48007;DHT22;33771;48.180;11.400;2023-03-02T01:21:38;-0.10;99.90
48007;DHT22;33771;48.180;11.400;2023-03-02T01:24:04;-0.10;99.90
48007;DHT22;33771;48.180;11.400;2023-03-02T01:26:30;-0.10;99.90
48007;DHT22;33771;48.180;11.400;2023-03-02T01:28:55;-0.10;99.90
48007;DHT22;33771;48.180;11.400;2023-03-02T01:31:21;-0.10;99.90
48007;DHT22;33771;48.180;11.400;2023-03-02T01:33:47;-0.10;99.90
48007;DHT22;33771;48.180;11.400;2023-03-02T01:36:13;-0.10;99.90
48007;DHT22;33771;48.180;11.400;2023-03-02T01:38:39;-0.10;99.90
48007;DHT22;33771;48.180;11.400;2023-03-02T01:41:04;-0.20;99.90
48007;DHT22;33771;48.180;11.400;2023-03-02T01:43:30;-0.20;99.90
48007;DHT22;33771;48.180;11.400;2023-03-02T01:45:58;-0.20;99.90
48007;DHT22;33771;48.180;11.400;2023-03-02T01:51:14;-0.30;99.90
48007;DHT22;33771;48.180;11.400;2023-03-02T01:53:43;-0.30;99.90
48007;DHT22;33771;48.180;11.400;2023-03-02T01:56:16;-0.30;99.90
48007;DHT22;33771;48.180;11.400;2023-03-02T01:58:43;-0.30;99.90
48007;DHT22;33771;48.180;11.400;2023-03-02T02:01:10;-0.40;99.90
48007;DHT22;33771;48.180;11.400;2023-03-02T02:03:42;-0.40;99.90
48007;DHT22;33771;48.180;11.400;2023-03-02T02:08:43;-0.40;99.90
48007;DHT22;33771;48.180;11.400;2023-03-02T02:11:08;-0.40;99.90
48007;DHT22;33771;48.180;11.400;2023-03-02T02:13:34;-0.50;99.90
48007;DHT22;33771;48.180;11.400;2023-03-02T02:16:00;-0.50;99.90
48007;DHT22;33771;48.180;11.400;2023-03-02T02:18:26;-0.50;99.90
48007;DHT22;33771;48.180;11.400;2023-03-02T02:20:53;-0.60;99.90
48007;DHT22;33771;48.180;11.400;2023-03-02T02:28:33;-0.60;99.90
48007;DHT22;33771;48.180;11.400;2023-03-02T02:33:40;-0.70;99.90
48007;DHT22;33771;48.180;11.400;2023-03-02T02:36:11;-0.70;99.90
48007;DHT22;33771;48.180;11.400;2023-03-02T02:38:39;-0.70;99.90
48007;DHT22;33771;48.180;11.400;2023-03-02T02:41:07;-0.70;99.90
48007;DHT22;33771;48.180;11.400;2023-03-02T02:43:35;-0.70;99.90
48007;DHT22;33771;48.180;11.400;2023-03-02T02:46:01;-0.70;99.90
48007;DHT22;33771;48.180;11.400;2023-03-02T02:48:29;-0.70;99.90
48007;DHT22;33771;48.180;11.400;2023-03-02T02:50:56;-0.70;99.90
48007;DHT22;33771;48.180;11.400;2023-03-02T02:53:32;-0.70;99.90
48007;DHT22;33771;48.180;11.400;2023-03-02T02:56:00;-0.70;99.90
48007;DHT22;33771;48.180;11.400;2023-03-02T02:58:33;-0.80;99.90
48007;DHT22;33771;48.180;11.400;2023-03-02T03:01:00;-0.80;99.90
48007;DHT22;33771;48.180;11.400;2023-03-02T03:03:34;-0.80;99.90
48007;DHT22;33771;48.180;11.400;2023-03-02T03:06:04;-0.80;99.90
48007;DHT22;33771;48.180;11.400;2023-03-02T03:11:13;-0.80;99.90
48007;DHT22;33771;48.180;11.400;2023-03-02T03:13:41;-0.80;99.90
48007;DHT22;33771;48.180;11.400;2023-03-02T03:16:11;-0.70;99.90
48007;DHT22;33771;48.180;11.400;2023-03-02T03:18:41;-0.70;99.90
48007;DHT22;33771;48.180;11.400;2023-03-02T03:21:07;-0.70;99.90
48007;DHT22;33771;48.180;11.400;2023-03-02T03:23:33;-0.70;99.90
48007;DHT22;33771;48.180;11.400;2023-03-02T03:26:05;-0.70;99.90
48007;DHT22;33771;48.180;11.400;2023-03-02T03:28:32;-0.70;99.90
48007;DHT22;33771;48.180;11.400;2023-03-02T03:30:58;-0.70;99.90
48007;DHT22;33771;48.180;11.400;2023-03-02T03:33:23;-0.70;99.90
48007;DHT22;33771;48.180;11.400;2023-03-02T03:35:49;-0.70;99.90
48007;DHT22;33771;48.180;11.400;2023-03-02T03:38:15;-0.80;99.90
48007;DHT22;33771;48.180;11.400;2023-03-02T03:40:41;-0.70;99.90
48007;DHT22;33771;48.180;11.400;2023-03-02T03:43:07;-0.80;99.90
48007;DHT22;33771;48.180;11.400;2023-03-02T03:45:33;-0.80;99.90
48007;DHT22;33771;48.180;11.400;2023-03-02T03:47:59;-0.80;99.90
48007;DHT22;33771;48.180;11.400;2023-03-02T03:50:24;-0.80;99.90
48007;DHT22;33771;48.180;11.400;2023-03-02T03:52:50;-0.80;99.90
48007;DHT22;33771;48.180;11.400;2023-03-02T03:55:16;-0.80;99.90
48007;DHT22;33771;48.180;11.400;2023-03-02T03:57:41;-0.80;99.90
48007;DHT22;33771;48.180;11.400;2023-03-02T04:00:10;-0.90;99.90
48007;DHT22;33771;48.180;11.400;2023-03-02T04:02:39;-0.90;99.90
48007;DHT22;33771;48.180;11.400;2023-03-02T04:05:05;-0.90;99.90
48007;DHT22;33771;48.180;11.400;2023-03-02T04:07:32;-0.90;99.90
48007;DHT22;33771;48.180;11.400;2023-03-02T04:09:58;-0.90;99.90
48007;DHT22;33771;48.180;11.400;2023-03-02T04:12:29;-0.90;99.90
48007;DHT22;33771;48.180;11.400;2023-03-02T04:14:54;-0.90;99.90
48007;DHT22;33771;48.180;11.400;2023-03-02T04:17:20;-1.00;99.90
48007;DHT22;33771;48.180;11.400;2023-03-02T04:19:45;-0.90;99.90
48007;DHT22;33771;48.180;11.400;2023-03-02T04:22:11;-0.90;99.90
48007;DHT22;33771;48.180;11.400;2023-03-02T04:24:36;-1.00;99.90
48007;DHT22;33771;48.180;11.400;2023-03-02T04:27:03;-1.00;99.90
48007;DHT22;33771;48.180;11.400;2023-03-02T04:29:28;-1.00;99.90
48007;DHT22;33771;48.180;11.400;2023-03-02T04:31:54;-1.00;99.90
48007;DHT22;33771;48.180;11.400;2023-03-02T04:34:20;-1.00;99.90
48007;DHT22;33771;48.180;11.400;2023-03-02T04:36:46;-1.00;99.90
48007;DHT22;33771;48.180;11.400;2023-03-02T04:39:13;-1.00;99.90
48007;DHT22;33771;48.180;11.400;2023-03-02T04:41:39;-1.00;99.90
48007;DHT22;33771;48.180;11.400;2023-03-02T04:44:05;-1.10;99.90
48007;DHT22;33771;48.180;11.400;2023-03-02T04:46:30;-1.00;99.90
48007;DHT22;33771;48.180;11.400;2023-03-02T04:48:56;-1.10;99.90
48007;DHT22;33771;48.180;11.400;2023-03-02T04:51:26;-1.10;99.90
48007;DHT22;33771;48.180;11.400;2023-03-02T04:53:54;-1.10;99.90
48007;DHT22;33771;48.180;11.400;2023-03-02T04:56:21;-1.10;99.90
48007;DHT22;33771;48.180;11.400;2023-03-02T04:58:46;-1.20;99.90
48007;DHT22;33771;48.180;11.400;2023-03-02T05:01:13;-1.20;99.90
48007;DHT22;33771;48.180;11.400;2023-03-02T05:03:39;-1.20;99.90
48007;DHT22;33771;48.180;11.400;2023-03-02T05:06:05;-1.20;99.90
48007;DHT22;33771;48.180;11.400;2023-03-02T05:08:31;-1.20;99.90
48007;DHT22;33771;48.180;11.400;2023-03-02T05:10:56;-1.30;99.90
48007;DHT22;33771;48.180;11.400;2023-03-02T05:13:23;-1.30;99.90
48007;DHT22;33771;48.180;11.400;2023-03-02T05:15:49;-1.30;99.90
48007;DHT22;33771;48.180;11.400;2023-03-02T05:18:16;-1.30;99.90
48007;DHT22;33771;48.180;11.400;2023-03-02T05:20:41;-1.40;99.90
48007;DHT22;33771;48.180;11.400;2023-03-02T05:23:09;-1.40;99.90
48007;DHT22;33771;48.180;11.400;2023-03-02T05:25:36;-1.40;99.90
48007;DHT22;33771;48.180;11.400;2023-03-02T05:28:03;-1.40;99.90
48007;DHT22;33771;48.180;11.400;2023-03-02T05:30:29;-1.50;99.90
48007;DHT22;33771;48.180;11.400;2023-03-02T05:32:56;-1.50;99.90
48007;DHT22;33771;48.180;11.400;2023-03-02T05:35:23;-1.50;99.90
48007;DHT22;33771;48.180;11.400;2023-03-02T05:37:48;-1.60;99.90
48007;DHT22;33771;48.180;11.400;2023-03-02T05:40:18;-1.60;99.90
48007;DHT22;33771;48.180;11.400;2023-03-02T05:42:44;-1.60;99.90
48007;DHT22;33771;48.180;11.400;2023-03-02T05:45:19;-1.60;99.90
48007;DHT22;33771;48.180;11.400;2023-03-02T05:47:45;-1.60;99.90
48007;DHT22;33771;48.180;11.400;2023-03-02T05:50:10;-1.60;99.90
48007;DHT22;33771;48.180;11.400;2023-03-02T05:52:36;-1.60;99.90
48007;DHT22;33771;48.180;11.400;2023-03-02T05:55:01;-1.60;99.90
48007;DHT22;33771;48.180;11.400;2023-03-02T05:57:27;-1.70;99.90
48007;DHT22;33771;48.180;11.400;2023-03-02T05:59:54;-1.70;99.90
48007;DHT22;33771;48.180;11.400;2023-03-02T06:02:20;-1.60;99.90
48007;DHT22;33771;48.180;11.400;2023-03-02T06:04:46;-1.60;99.90
48007;DHT22;33771;48.180;11.400;2023-03-02T06:07:12;-1.70;99.90
48007;DHT22;33771;48.180;11.400;2023-03-02T06:09:38;-1.70;99.90
48007;DHT22;33771;48.180;11.400;2023-03-02T06:12:05;-1.60;99.90
48007;DHT22;33771;48.180;11.400;2023-03-02T06:14:31;-1.60;99.90
48007;DHT22;33771;48.180;11.400;2023-03-02T06:16:56;-1.60;99.90
48007;DHT22;33771;48.180;11.400;2023-03-02T06:19:22;-1.60;99.90
48007;DHT22;33771;48.180;11.400;2023-03-02T06:21:48;-1.60;99.90
48007;DHT22;33771;48.180;11.400;2023-03-02T06:24:13;-1.60;99.90
48007;DHT22;33771;48.180;11.400;2023-03-02T06:26:39;-1.60;99.90
48007;DHT22;33771;48.180;11.400;2023-03-02T06:29:04;-1.50;99.90
48007;DHT22;33771;48.180;11.400;2023-03-02T06:31:35;-1.50;99.90
48007;DHT22;33771;48.180;11.400;2023-03-02T06:34:00;-1.50;99.90
48007;DHT22;33771;48.180;11.400;2023-03-02T06:36:27;-1.50;99.90
48007;DHT22;33771;48.180;11.400;2023-03-02T06:38:52;-1.50;99.90
48007;DHT22;33771;48.180;11.400;2023-03-02T06:41:18;-1.40;99.90
48007;DHT22;33771;48.180;11.400;2023-03-02T06:43:44;-1.40;99.90
48007;DHT22;33771;48.180;11.400;2023-03-02T06:46:10;-1.30;99.90
48007;DHT22;33771;48.180;11.400;2023-03-02T06:48:36;-1.30;99.90
48007;DHT22;33771;48.180;11.400;2023-03-02T06:51:02;-1.20;99.90
48007;DHT22;33771;48.180;11.400;2023-03-02T06:53:27;-1.20;99.90
48007;DHT22;33771;48.180;11.400;2023-03-02T06:55:53;-1.20;99.90
48007;DHT22;33771;48.180;11.400;2023-03-02T06:58:19;-1.10;99.90
48007;DHT22;33771;48.180;11.400;2023-03-02T07:00:44;-1.00;99.90
48007;DHT22;33771;48.180;11.400;2023-03-02T07:03:10;-1.00;99.90
48007;DHT22;33771;48.180;11.400;2023-03-02T07:05:36;-0.90;99.90
48007;DHT22;33771;48.180;11.400;2023-03-02T07:08:02;-0.90;99.90
48007;DHT22;33771;48.180;11.400;2023-03-02T07:10:27;-0.80;99.90
48007;DHT22;33771;48.180;11.400;2023-03-02T07:12:53;-0.70;99.90
48007;DHT22;33771;48.180;11.400;2023-03-02T07:15:20;-0.70;99.90
48007;DHT22;33771;48.180;11.400;2023-03-02T07:17:46;-0.60;99.90
48007;DHT22;33771;48.180;11.400;2023-03-02T07:20:14;-0.50;99.90
48007;DHT22;33771;48.180;11.400;2023-03-02T07:22:40;-0.50;99.90
48007;DHT22;33771;48.180;11.400;2023-03-02T07:25:07;-0.40;99.90
48007;DHT22;33771;48.180;11.400;2023-03-02T07:27:33;-0.30;99.90
48007;DHT22;33771;48.180;11.400;2023-03-02T07:29:59;-0.20;99.90
48007;DHT22;33771;48.180;11.400;2023-03-02T07:32:24;-0.10;99.90
48007;DHT22;33771;48.180;11.400;2023-03-02T07:34:50;0.00;99.90
48007;DHT22;33771;48.180;11.400;2023-03-02T07:37:15;0.10;99.90
48007;DHT22;33771;48.180;11.400;2023-03-02T07:39:41;0.30;99.90
48007;DHT22;33771;48.180;11.400;2023-03-02T07:42:07;0.40;99.90
48007;DHT22;33771;48.180;11.400;2023-03-02T07:44:35;0.50;99.90
48007;DHT22;33771;48.180;11.400;2023-03-02T07:47:01;0.60;99.90
48007;DHT22;33771;48.180;11.400;2023-03-02T07:49:27;0.70;99.90
48007;DHT22;33771;48.180;11.400;2023-03-02T07:51:52;0.80;99.90
48007;DHT22;33771;48.180;11.400;2023-03-02T07:54:18;1.00;99.90
48007;DHT22;33771;48.180;11.400;2023-03-02T07:56:43;1.10;99.90
48007;DHT22;33771;48.180;11.400;2023-03-02T07:59:11;1.20;99.90
48007;DHT22;33771;48.180;11.400;2023-03-02T08:01:36;1.30;99.90
48007;DHT22;33771;48.180;11.400;2023-03-02T08:04:02;1.50;99.90
48007;DHT22;33771;48.180;11.400;2023-03-02T08:06:27;1.70;99.90
48007;DHT22;33771;48.180;11.400;2023-03-02T08:08:53;1.70;99.90
48007;DHT22;33771;48.180;11.400;2023-03-02T08:11:19;1.80;99.90
48007;DHT22;33771;48.180;11.400;2023-03-02T08:13:45;1.90;99.90
48007;DHT22;33771;48.180;11.400;2023-03-02T08:16:12;2.10;99.90
48007;DHT22;33771;48.180;11.400;2023-03-02T08:18:38;2.10;99.90
48007;DHT22;33771;48.180;11.400;2023-03-02T08:21:12;2.20;99.90
48007;DHT22;33771;48.180;11.400;2023-03-02T08:23:40;2.30;99.90
48007;DHT22;33771;48.180;11.400;2023-03-02T08:26:06;2.40;99.90
48007;DHT22;33771;48.180;11.400;2023-03-02T08:28:32;2.50;99.90
48007;DHT22;33771;48.180;11.400;2023-03-02T08:30:59;2.60;99.90
48007;DHT22;33771;48.180;11.400;2023-03-02T08:33:26;2.80;99.90
48007;DHT22;33771;48.180;11.400;2023-03-02T08:35:56;3.00;99.90
48007;DHT22;33771;48.180;11.400;2023-03-02T08:38:23;3.10;99.90
48007;DHT22;33771;48.180;11.400;2023-03-02T08:40:49;3.20;99.90
48007;DHT22;33771;48.180;11.400;2023-03-02T08:43:16;3.30;99.90
48007;DHT22;33771;48.180;11.400;2023-03-02T08:45:41;3.40;99.90
48007;DHT22;33771;48.180;11.400;2023-03-02T08:48:07;3.40;99.90
48007;DHT22;33771;48.180;11.400;2023-03-02T08:50:33;3.50;99.90
48007;DHT22;33771;48.180;11.400;2023-03-02T08:52:58;3.50;99.90
48007;DHT22;33771;48.180;11.400;2023-03-02T08:55:24;3.50;99.90
48007;DHT22;33771;48.180;11.400;2023-03-02T08:57:49;3.50;99.90
48007;DHT22;33771;48.180;11.400;2023-03-02T09:00:15;3.60;99.90
48007;DHT22;33771;48.180;11.400;2023-03-02T09:02:41;3.60;99.90
48007;DHT22;33771;48.180;11.400;2023-03-02T09:05:07;3.70;99.90
48007;DHT22;33771;48.180;11.400;2023-03-02T09:07:33;3.70;99.90
48007;DHT22;33771;48.180;11.400;2023-03-02T09:09:58;3.90;99.90
48007;DHT22;33771;48.180;11.400;2023-03-02T09:12:24;4.00;99.90
48007;DHT22;33771;48.180;11.400;2023-03-02T09:14:49;4.20;99.90
48007;DHT22;33771;48.180;11.400;2023-03-02T09:17:15;4.20;99.90
48007;DHT22;33771;48.180;11.400;2023-03-02T09:19:41;4.30;99.90
48007;DHT22;33771;48.180;11.400;2023-03-02T09:22:07;4.50;99.90
48007;DHT22;33771;48.180;11.400;2023-03-02T09:24:34;4.70;99.90
48007;DHT22;33771;48.180;11.400;2023-03-02T09:27:00;4.90;99.90
48007;DHT22;33771;48.180;11.400;2023-03-02T09:29:26;4.90;99.90
48007;DHT22;33771;48.180;11.400;2023-03-02T09:31:51;5.00;99.90
48007;DHT22;33771;48.180;11.400;2023-03-02T09:34:17;5.10;99.90
48007;DHT22;33771;48.180;11.400;2023-03-02T09:36:42;5.30;99.90
48007;DHT22;33771;48.180;11.400;2023-03-02T09:39:08;5.40;99.90
48007;DHT22;33771;48.180;11.400;2023-03-02T09:47:17;5.60;99.90
48007;DHT22;33771;48.180;11.400;2023-03-02T09:52:38;5.80;99.90
48007;DHT22;33771;48.180;11.400;2023-03-02T09:55:13;5.80;99.90
48007;DHT22;33771;48.180;11.400;2023-03-02T09:57:40;6.00;99.90
48007;DHT22;33771;48.180;11.400;2023-03-02T10:02:53;6.30;99.90
48007;DHT22;33771;48.180;11.400;2023-03-02T10:05:24;6.40;99.90
48007;DHT22;33771;48.180;11.400;2023-03-02T10:07:51;6.50;99.90
48007;DHT22;33771;48.180;11.400;2023-03-02T10:15:41;6.40;99.90
48007;DHT22;33771;48.180;11.400;2023-03-02T10:21:38;6.50;99.90
48007;DHT22;33771;48.180;11.400;2023-03-02T10:24:13;6.70;99.90
48007;DHT22;33771;48.180;11.400;2023-03-02T10:26:40;6.80;99.90
48007;DHT22;33771;48.180;11.400;2023-03-02T10:31:47;6.80;99.90
48007;DHT22;33771;48.180;11.400;2023-03-02T10:34:22;7.00;99.90
48007;DHT22;33771;48.180;11.400;2023-03-02T10:36:48;7.10;99.90
48007;DHT22;33771;48.180;11.400;2023-03-02T10:39:15;7.30;99.90
48007;DHT22;33771;48.180;11.400;2023-03-02T10:44:32;7.60;99.90
48007;DHT22;33771;48.180;11.400;2023-03-02T10:47:01;7.70;99.90
48007;DHT22;33771;48.180;11.400;2023-03-02T10:49:30;7.80;99.90
48007;DHT22;33771;48.180;11.400;2023-03-02T10:51:59;7.80;99.90
48007;DHT22;33771;48.180;11.400;2023-03-02T10:54:25;7.80;99.90
48007;DHT22;33771;48.180;11.400;2023-03-02T10:56:54;7.90;99.90
48007;DHT22;33771;48.180;11.400;2023-03-02T10:59:46;8.10;99.90
48007;DHT22;33771;48.180;11.400;2023-03-02T11:02:23;8.40;99.90
48007;DHT22;33771;48.180;11.400;2023-03-02T11:04:54;8.40;99.90
48007;DHT22;33771;48.180;11.400;2023-03-02T11:07:22;8.50;99.90
48007;DHT22;33771;48.180;11.400;2023-03-02T11:10:00;8.50;99.90
48007;DHT22;33771;48.180;11.400;2023-03-02T11:12:27;8.70;99.90
48007;DHT22;33771;48.180;11.400;2023-03-02T11:15:18;8.70;99.90
48007;DHT22;33771;48.180;11.400;2023-03-02T11:17:48;8.90;99.90
48007;DHT22;33771;48.180;11.400;2023-03-02T11:20:19;9.10;99.90
48007;DHT22;33771;48.180;11.400;2023-03-02T11:22:46;9.30;99.90
48007;DHT22;33771;48.180;11.400;2023-03-02T11:25:27;9.40;99.90
48007;DHT22;33771;48.180;11.400;2023-03-02T11:28:00;9.50;99.90
48007;DHT22;33771;48.180;11.400;2023-03-02T11:30:27;9.70;99.90
48007;DHT22;33771;48.180;11.400;2023-03-02T11:33:15;9.80;99.90
48007;DHT22;33771;48.180;11.400;2023-03-02T11:35:56;9.90;99.90
48007;DHT22;33771;48.180;11.400;2023-03-02T11:38:29;9.90;99.90
48007;DHT22;33771;48.180;11.400;2023-03-02T11:41:04;9.90;99.90
48007;DHT22;33771;48.180;11.400;2023-03-02T11:43:31;10.10;99.90
48007;DHT22;33771;48.180;11.400;2023-03-02T11:46:03;10.00;99.90
48007;DHT22;33771;48.180;11.400;2023-03-02T11:48:42;9.90;99.90
48007;DHT22;33771;48.180;11.400;2023-03-02T11:51:21;9.90;99.90
48007;DHT22;33771;48.180;11.400;2023-03-02T11:54:03;9.90;99.90
48007;DHT22;33771;48.180;11.400;2023-03-02T11:56:31;9.90;99.90
48007;DHT22;33771;48.180;11.400;2023-03-02T11:59:01;10.00;99.90
48007;DHT22;33771;48.180;11.400;2023-03-02T12:01:30;10.40;99.90
48007;DHT22;33771;48.180;11.400;2023-03-02T12:04:24;10.70;99.90
48007;DHT22;33771;48.180;11.400;2023-03-02T12:06:50;10.70;99.90
48007;DHT22;33771;48.180;11.400;2023-03-02T12:11:57;11.00;99.90
48007;DHT22;33771;48.180;11.400;2023-03-02T12:14:34;11.30;99.90
48007;DHT22;33771;48.180;11.400;2023-03-02T12:17:15;11.30;99.90
48007;DHT22;33771;48.180;11.400;2023-03-02T12:19:43;11.30;99.90
48007;DHT22;33771;48.180;11.400;2023-03-02T12:22:11;11.20;99.90
48007;DHT22;33771;48.180;11.400;2023-03-02T12:24:42;11.40;99.90
48007;DHT22;33771;48.180;11.400;2023-03-02T12:29:44;11.40;99.90
48007;DHT22;33771;48.180;11.400;2023-03-02T12:48:30;11.70;99.90
48007;DHT22;33771;48.180;11.400;2023-03-02T12:51:05;11.70;99.90
48007;DHT22;33771;48.180;11.400;2023-03-02T12:53:36;11.90;99.90
48007;DHT22;33771;48.180;11.400;2023-03-02T12:56:05;11.90;99.90
48007;DHT22;33771;48.180;11.400;2023-03-02T12:58:31;12.00;99.90
48007;DHT22;33771;48.180;11.400;2023-03-02T13:01:00;11.90;99.90
48007;DHT22;33771;48.180;11.400;2023-03-02T13:03:29;11.90;99.90
48007;DHT22;33771;48.180;11.400;2023-03-02T13:06:02;11.80;99.90
48007;DHT22;33771;48.180;11.400;2023-03-02T13:08:28;11.90;99.90
48007;DHT22;33771;48.180;11.400;2023-03-02T13:10:57;11.80;99.90
48007;DHT22;33771;48.180;11.400;2023-03-02T13:13:35;11.90;99.90
48007;DHT22;33771;48.180;11.400;2023-03-02T13:16:21;12.10;99.90
48007;DHT22;33771;48.180;11.400;2023-03-02T13:18:48;12.10;99.90
48007;DHT22;33771;48.180;11.400;2023-03-02T13:21:18;12.00;99.90
48007;DHT22;33771;48.180;11.400;2023-03-02T13:23:46;11.90;99.90
48007;DHT22;33771;48.180;11.400;2023-03-02T13:26:31;12.00;99.90
48007;DHT22;33771;48.180;11.400;2023-03-02T13:29:16;12.20;99.90
48007;DHT22;33771;48.180;11.400;2023-03-02T13:31:45;12.30;99.90
48007;DHT22;33771;48.180;11.400;2023-03-02T13:34:26;12.20;99.90
48007;DHT22;33771;48.180;11.400;2023-03-02T13:36:52;12.10;99.90
48007;DHT22;33771;48.180;11.400;2023-03-02T13:39:25;12.10;99.90
48007;DHT22;33771;48.180;11.400;2023-03-02T13:41:56;12.00;99.90
48007;DHT22;33771;48.180;11.400;2023-03-02T13:44:33;12.20;99.90
48007;DHT22;33771;48.180;11.400;2023-03-02T13:47:00;12.20;99.90
48007;DHT22;33771;48.180;11.400;2023-03-02T13:49:30;12.40;99.90
48007;DHT22;33771;48.180;11.400;2023-03-02T13:52:12;12.40;99.90
48007;DHT22;33771;48.180;11.400;2023-03-02T13:54:42;12.50;99.90
48007;DHT22;33771;48.180;11.400;2023-03-02T13:57:19;12.40;99.90
48007;DHT22;33771;48.180;11.400;2023-03-02T13:59:46;12.40;99.90
48007;DHT22;33771;48.180;11.400;2023-03-02T14:02:23;12.40;99.90
48007;DHT22;33771;48.180;11.400;2023-03-02T14:04:49;12.40;99.90
48007;DHT22;33771;48.180;11.400;2023-03-02T14:07:15;12.20;99.90
48007;DHT22;33771;48.180;11.400;2023-03-02T14:09:42;12.20;99.90
48007;DHT22;33771;48.180;11.400;2023-03-02T14:12:09;12.30;99.90
48007;DHT22;33771;48.180;11.400;2023-03-02T14:14:38;12.10;99.90
48007;DHT22;33771;48.180;11.400;2023-03-02T14:17:12;12.00;99.90
48007;DHT22;33771;48.180;11.400;2023-03-02T14:19:38;11.90;99.90
48007;DHT22;33771;48.180;11.400;2023-03-02T14:22:03;11.60;99.90
48007;DHT22;33771;48.180;11.400;2023-03-02T14:24:29;11.50;99.90
48007;DHT22;33771;48.180;11.400;2023-03-02T14:26:55;11.40;99.90
48007;DHT22;33771;48.180;11.400;2023-03-02T14:29:29;11.30;99.90
48007;DHT22;33771;48.180;11.400;2023-03-02T14:31:58;11.20;99.90
48007;DHT22;33771;48.180;11.400;2023-03-02T14:34:33;11.10;99.90
48007;DHT22;33771;48.180;11.400;2023-03-02T14:37:02;10.80;99.90
48007;DHT22;33771;48.180;11.400;2023-03-02T14:39:37;10.80;99.90
48007;DHT22;33771;48.180;11.400;2023-03-02T14:42:04;10.60;99.90
48007;DHT22;33771;48.180;11.400;2023-03-02T14:44:30;10.50;99.90
48007;DHT22;33771;48.180;11.400;2023-03-02T14:46:56;10.40;99.90
48007;DHT22;33771;48.180;11.400;2023-03-02T14:49:22;10.40;99.90
48007;DHT22;33771;48.180;11.400;2023-03-02T14:52:01;10.30;99.90
48007;DHT22;33771;48.180;11.400;2023-03-02T14:54:40;10.20;99.90
48007;DHT22;33771;48.180;11.400;2023-03-02T14:57:17;10.10;99.90
48007;DHT22;33771;48.180;11.400;2023-03-02T14:59:43;10.00;99.90
48007;DHT22;33771;48.180;11.400;2023-03-02T15:02:10;9.90;99.90
48007;DHT22;33771;48.180;11.400;2023-03-02T15:04:35;9.80;99.90
48007;DHT22;33771;48.180;11.400;2023-03-02T15:07:01;9.70;99.90
48007;DHT22;33771;48.180;11.400;2023-03-02T15:09:27;9.60;99.90
48007;DHT22;33771;48.180;11.400;2023-03-02T15:11:52;9.50;99.90
48007;DHT22;33771;48.180;11.400;2023-03-02T15:14:18;9.30;99.90
48007;DHT22;33771;48.180;11.400;2023-03-02T15:16:43;9.40;99.90
48007;DHT22;33771;48.180;11.400;2023-03-02T15:19:09;9.30;99.90
48007;DHT22;33771;48.180;11.400;2023-03-02T15:21:35;9.10;99.90
48007;DHT22;33771;48.180;11.400;2023-03-02T15:24:01;9.00;99.90
48007;DHT22;33771;48.180;11.400;2023-03-02T15:26:27;8.90;99.90
48007;DHT22;33771;48.180;11.400;2023-03-02T15:28:52;8.80;99.90
48007;DHT22;33771;48.180;11.400;2023-03-02T15:31:18;8.70;99.90
48007;DHT22;33771;48.180;11.400;2023-03-02T15:33:45;8.60;99.90
48007;DHT22;33771;48.180;11.400;2023-03-02T15:36:12;8.50;99.90
48007;DHT22;33771;48.180;11.400;2023-03-02T15:38:37;8.40;99.90
48007;DHT22;33771;48.180;11.400;2023-03-02T15:41:04;8.30;99.90
48007;DHT22;33771;48.180;11.400;2023-03-02T15:43:30;8.10;99.90
48007;DHT22;33771;48.180;11.400;2023-03-02T15:45:55;8.00;99.90
48007;DHT22;33771;48.180;11.400;2023-03-02T15:48:21;7.90;99.90
48007;DHT22;33771;48.180;11.400;2023-03-02T15:50:58;7.80;99.90
48007;DHT22;33771;48.180;11.400;2023-03-02T15:53:24;7.70;99.90
48007;DHT22;33771;48.180;11.400;2023-03-02T15:55:50;7.50;99.90
48007;DHT22;33771;48.180;11.400;2023-03-02T15:58:15;7.40;99.90
48007;DHT22;33771;48.180;11.400;2023-03-02T16:00:43;7.20;99.90
48007;DHT22;33771;48.180;11.400;2023-03-02T16:03:08;7.10;99.90
48007;DHT22;33771;48.180;11.400;2023-03-02T16:05:34;6.90;99.90
48007;DHT22;33771;48.180;11.400;2023-03-02T16:07:59;6.80;99.90
48007;DHT22;33771;48.180;11.400;2023-03-02T16:10:25;6.70;99.90
48007;DHT22;33771;48.180;11.400;2023-03-02T16:12:54;6.60;99.90
48007;DHT22;33771;48.180;11.400;2023-03-02T16:15:20;6.40;99.90
48007;DHT22;33771;48.180;11.400;2023-03-02T16:17:45;6.30;99.90
48007;DHT22;33771;48.180;11.400;2023-03-02T16:20:11;6.20;99.90
48007;DHT22;33771;48.180;11.400;2023-03-02T16:22:36;6.00;99.90
48007;DHT22;33771;48.180;11.400;2023-03-02T16:25:02;5.90;99.90
48007;DHT22;33771;48.180;11.400;2023-03-02T16:27:28;5.80;99.90
48007;DHT22;33771;48.180;11.400;2023-03-02T16:29:54;5.70;99.90